CheckWX is a tool to help pilots better visualize weather data.  It is not intended as a substitute for an official pre-flight weather briefing.

04:42:41 UTC

CYDF TAF
Deer Lake Airport
Deer Lake, Canada
TAF AMD CYDF 230428Z 2304/2314 06010G20KT 6SM -RA BR OVC015 TEMPO 2304/2307 2SM -RA BR OVC007 FM230700 09015G25KT 6SM BR OVC015 TEMPO 2307/2314 4SM -DZ BR OVC007 RMK NXT FCST BY 230800Z

Mar-23@
04:00 UTC

Mar-23 @ 04:00 UTC

Mar-23@
07:00 UTC

Mar-23 @ 07:00 UTC

TAF AMD CYDF 230428Z 2304/2314 06010G20KT 6SM -RA BR OVC015
Wind
  • 060° at 10 KTS
  • {Gusting to 20 KTS
Conditions
Light Rain, Mist
Cloud Levels
  • Overcast at 1,500' AGL

Mar-23@
04:00 UTC

Mar-23 @ 04:00 UTC

Mar-23@
07:00 UTC

Mar-23 @ 07:00 UTC

TEMPO 2304/2307 2SM -RA BR OVC007

Temporary

Temporary Changes expected for less than half the time period

Conditions
Light Rain, Mist
Cloud Levels
  • Overcast at 700' AGL

Mar-23@
07:00 UTC

Mar-23 @ 07:00 UTC

Mar-23@
14:00 UTC

Mar-23 @ 14:00 UTC

TEMPO 2307/2314 4SM -DZ BR OVC007 RMK NXT FCST BY 230800Z

Temporary

Temporary Changes expected for less than half the time period

Conditions
Light Drizzle, Mist
Cloud Levels
  • Overcast at 700' AGL

Mar-23@
07:00 UTC

Mar-23 @ 07:00 UTC

Mar-23@
14:00 UTC

Mar-23 @ 14:00 UTC

FM230700 09015G25KT 6SM BR OVC015

From

From Standard forecast or significant change

Wind
  • 090° at 15 KTS
  • {Gusting to 25 KTS
Conditions
Mist
Cloud Levels
  • Overcast at 1,500' AGL